sensor_id;sensor_type;location;lat;lon;timestamp;P1;durP1;ratioP1;P2;durP2;ratioP2
35245;SDS011;21379;50.962;6.960;2022-08-11T00:01:43;6.50;;;2.67;;
35245;SDS011;21379;50.962;6.960;2022-08-11T00:04:11;3.10;;;1.60;;
35245;SDS011;21379;50.962;6.960;2022-08-11T00:06:40;2.25;;;1.55;;
35245;SDS011;21379;50.962;6.960;2022-08-11T00:09:08;2.35;;;1.65;;
35245;SDS011;21379;50.962;6.960;2022-08-11T00:11:39;2.70;;;2.03;;
35245;SDS011;21379;50.962;6.960;2022-08-11T00:14:12;4.68;;;2.20;;
35245;SDS011;21379;50.962;6.960;2022-08-11T00:16:42;4.65;;;2.55;;
35245;SDS011;21379;50.962;6.960;2022-08-11T00:19:19;5.50;;;1.95;;
35245;SDS011;21379;50.962;6.960;2022-08-11T00:21:47;3.53;;;1.90;;
35245;SDS011;21379;50.962;6.960;2022-08-11T00:24:15;2.50;;;1.52;;
35245;SDS011;21379;50.962;6.960;2022-08-11T00:26:47;3.42;;;2.10;;
35245;SDS011;21379;50.962;6.960;2022-08-11T00:29:14;3.47;;;2.13;;
35245;SDS011;21379;50.962;6.960;2022-08-11T00:31:43;3.72;;;1.67;;
35245;SDS011;21379;50.962;6.960;2022-08-11T00:34:12;2.88;;;1.83;;
35245;SDS011;21379;50.962;6.960;2022-08-11T00:36:46;5.18;;;2.42;;
35245;SDS011;21379;50.962;6.960;2022-08-11T00:39:17;3.08;;;2.15;;
35245;SDS011;21379;50.962;6.960;2022-08-11T00:41:53;3.08;;;2.30;;
35245;SDS011;21379;50.962;6.960;2022-08-11T00:44:31;3.03;;;2.17;;
35245;SDS011;21379;50.962;6.960;2022-08-11T00:47:09;4.47;;;2.38;;
35245;SDS011;21379;50.962;6.960;2022-08-11T00:49:46;2.33;;;1.70;;
35245;SDS011;21379;50.962;6.960;2022-08-11T00:52:28;2.78;;;1.98;;
35245;SDS011;21379;50.962;6.960;2022-08-11T00:58:26;5.85;;;2.65;;
35245;SDS011;21379;50.962;6.960;2022-08-11T01:01:13;4.88;;;2.25;;
35245;SDS011;21379;50.962;6.960;2022-08-11T01:09:58;3.88;;;2.47;;
35245;SDS011;21379;50.962;6.960;2022-08-11T01:12:42;4.45;;;2.65;;
35245;SDS011;21379;50.962;6.960;2022-08-11T01:15:33;4.55;;;2.55;;
35245;SDS011;21379;50.962;6.960;2022-08-11T01:18:31;6.60;;;2.10;;
35245;SDS011;21379;50.962;6.960;2022-08-11T01:24:40;4.22;;;2.72;;
35245;SDS011;21379;50.962;6.960;2022-08-11T01:27:44;2.92;;;1.83;;
35245;SDS011;21379;50.962;6.960;2022-08-11T01:30:56;5.57;;;2.90;;
35245;SDS011;21379;50.962;6.960;2022-08-11T01:37:26;2.65;;;1.90;;
35245;SDS011;21379;50.962;6.960;2022-08-11T01:40:30;4.82;;;2.97;;
35245;SDS011;21379;50.962;6.960;2022-08-11T01:43:52;4.75;;;2.63;;
35245;SDS011;21379;50.962;6.960;2022-08-11T01:47:01;4.47;;;2.50;;
35245;SDS011;21379;50.962;6.960;2022-08-11T01:50:01;4.25;;;1.90;;
35245;SDS011;21379;50.962;6.960;2022-08-11T01:52:35;5.68;;;3.05;;
35245;SDS011;21379;50.962;6.960;2022-08-11T01:55:21;5.13;;;2.47;;
35245;SDS011;21379;50.962;6.960;2022-08-11T01:58:00;6.68;;;2.38;;
35245;SDS011;21379;50.962;6.960;2022-08-11T02:00:34;5.47;;;2.25;;
35245;SDS011;21379;50.962;6.960;2022-08-11T02:03:14;9.02;;;2.47;;
35245;SDS011;21379;50.962;6.960;2022-08-11T02:05:51;8.75;;;2.70;;
35245;SDS011;21379;50.962;6.960;2022-08-11T02:08:51;8.48;;;2.42;;
35245;SDS011;21379;50.962;6.960;2022-08-11T02:11:24;3.67;;;2.60;;
35245;SDS011;21379;50.962;6.960;2022-08-11T02:13:59;4.55;;;2.65;;
35245;SDS011;21379;50.962;6.960;2022-08-11T02:16:37;4.00;;;2.50;;
35245;SDS011;21379;50.962;6.960;2022-08-11T02:19:19;2.75;;;2.00;;
35245;SDS011;21379;50.962;6.960;2022-08-11T02:22:08;3.47;;;2.35;;
35245;SDS011;21379;50.962;6.960;2022-08-11T02:25:10;3.80;;;2.42;;
35245;SDS011;21379;50.962;6.960;2022-08-11T02:27:48;3.35;;;2.33;;
35245;SDS011;21379;50.962;6.960;2022-08-11T02:30:22;5.20;;;2.45;;
35245;SDS011;21379;50.962;6.960;2022-08-11T02:32:54;5.95;;;3.58;;
35245;SDS011;21379;50.962;6.960;2022-08-11T02:35:50;2.65;;;2.15;;
35245;SDS011;21379;50.962;6.960;2022-08-11T02:38:25;4.78;;;2.65;;
35245;SDS011;21379;50.962;6.960;2022-08-11T02:40:59;3.22;;;2.30;;
35245;SDS011;21379;50.962;6.960;2022-08-11T02:43:30;4.40;;;2.58;;
35245;SDS011;21379;50.962;6.960;2022-08-11T02:46:17;6.20;;;2.40;;
35245;SDS011;21379;50.962;6.960;2022-08-11T02:48:54;6.13;;;2.35;;
35245;SDS011;21379;50.962;6.960;2022-08-11T02:54:31;6.70;;;3.35;;
35245;SDS011;21379;50.962;6.960;2022-08-11T02:57:08;4.50;;;2.00;;
35245;SDS011;21379;50.962;6.960;2022-08-11T02:59:44;5.05;;;2.13;;
35245;SDS011;21379;50.962;6.960;2022-08-11T03:02:25;7.47;;;2.67;;
35245;SDS011;21379;50.962;6.960;2022-08-11T03:05:04;3.15;;;2.67;;
35245;SDS011;21379;50.962;6.960;2022-08-11T03:08:02;2.53;;;2.22;;
35245;SDS011;21379;50.962;6.960;2022-08-11T03:10:54;7.18;;;2.30;;
35245;SDS011;21379;50.962;6.960;2022-08-11T03:13:48;3.63;;;1.95;;
35245;SDS011;21379;50.962;6.960;2022-08-11T03:16:50;4.28;;;2.20;;
35245;SDS011;21379;50.962;6.960;2022-08-11T03:19:24;2.45;;;2.00;;
35245;SDS011;21379;50.962;6.960;2022-08-11T03:22:01;6.15;;;3.17;;
35245;SDS011;21379;50.962;6.960;2022-08-11T03:24:35;3.75;;;2.45;;
35245;SDS011;21379;50.962;6.960;2022-08-11T03:27:19;3.38;;;2.30;;
35245;SDS011;21379;50.962;6.960;2022-08-11T03:30:00;2.70;;;1.85;;
35245;SDS011;21379;50.962;6.960;2022-08-11T03:32:33;6.03;;;2.38;;
35245;SDS011;21379;50.962;6.960;2022-08-11T03:35:07;5.47;;;2.70;;
35245;SDS011;21379;50.962;6.960;2022-08-11T03:37:40;4.45;;;2.35;;
35245;SDS011;21379;50.962;6.960;2022-08-11T03:40:27;7.20;;;2.13;;
35245;SDS011;21379;50.962;6.960;2022-08-11T03:43:21;2.28;;;1.95;;
35245;SDS011;21379;50.962;6.960;2022-08-11T03:45:59;3.70;;;2.25;;
35245;SDS011;21379;50.962;6.960;2022-08-11T03:48:36;3.80;;;2.47;;
35245;SDS011;21379;50.962;6.960;2022-08-11T03:51:13;8.93;;;2.10;;
35245;SDS011;21379;50.962;6.960;2022-08-11T03:53:54;7.68;;;2.10;;
35245;SDS011;21379;50.962;6.960;2022-08-11T04:06:04;3.50;;;2.00;;
35245;SDS011;21379;50.962;6.960;2022-08-11T04:14:48;7.15;;;1.70;;
35245;SDS011;21379;50.962;6.960;2022-08-11T04:17:55;4.28;;;2.35;;
35245;SDS011;21379;50.962;6.960;2022-08-11T04:23:55;3.83;;;2.50;;
35245;SDS011;21379;50.962;6.960;2022-08-11T04:26:48;3.63;;;2.28;;
35245;SDS011;21379;50.962;6.960;2022-08-11T04:29:38;9.10;;;2.05;;
35245;SDS011;21379;50.962;6.960;2022-08-11T04:32:22;3.15;;;1.98;;
35245;SDS011;21379;50.962;6.960;2022-08-11T04:35:12;4.20;;;2.05;;
35245;SDS011;21379;50.962;6.960;2022-08-11T04:38:04;4.13;;;1.85;;
35245;SDS011;21379;50.962;6.960;2022-08-11T04:40:54;4.47;;;2.03;;
35245;SDS011;21379;50.962;6.960;2022-08-11T04:47:04;5.20;;;2.10;;
35245;SDS011;21379;50.962;6.960;2022-08-11T04:50:07;3.53;;;2.17;;
35245;SDS011;21379;50.962;6.960;2022-08-11T04:53:18;7.70;;;2.50;;
35245;SDS011;21379;50.962;6.960;2022-08-11T04:56:13;2.10;;;1.90;;
35245;SDS011;21379;50.962;6.960;2022-08-11T05:02:33;4.07;;;2.28;;
35245;SDS011;21379;50.962;6.960;2022-08-11T05:05:25;4.32;;;1.85;;
35245;SDS011;21379;50.962;6.960;2022-08-11T05:11:22;4.63;;;2.05;;
35245;SDS011;21379;50.962;6.960;2022-08-11T05:17:03;4.32;;;1.85;;
35245;SDS011;21379;50.962;6.960;2022-08-11T05:19:53;6.85;;;2.67;;
35245;SDS011;21379;50.962;6.960;2022-08-11T05:22:38;2.88;;;1.88;;
35245;SDS011;21379;50.962;6.960;2022-08-11T05:25:31;2.45;;;1.77;;
35245;SDS011;21379;50.962;6.960;2022-08-11T05:28:26;4.05;;;3.05;;
35245;SDS011;21379;50.962;6.960;2022-08-11T05:31:15;4.32;;;2.03;;
35245;SDS011;21379;50.962;6.960;2022-08-11T05:34:09;2.35;;;1.40;;
35245;SDS011;21379;50.962;6.960;2022-08-11T05:36:56;9.27;;;2.00;;
35245;SDS011;21379;50.962;6.960;2022-08-11T05:39:31;2.75;;;1.90;;
35245;SDS011;21379;50.962;6.960;2022-08-11T05:42:22;5.15;;;1.90;;
35245;SDS011;21379;50.962;6.960;2022-08-11T05:45:09;4.22;;;2.10;;
35245;SDS011;21379;50.962;6.960;2022-08-11T05:47:56;8.63;;;2.83;;
35245;SDS011;21379;50.962;6.960;2022-08-11T05:50:41;2.97;;;1.90;;
35245;SDS011;21379;50.962;6.960;2022-08-11T05:53:33;5.40;;;2.05;;
35245;SDS011;21379;50.962;6.960;2022-08-11T05:56:19;2.25;;;1.50;;
35245;SDS011;21379;50.962;6.960;2022-08-11T05:58:49;6.68;;;2.08;;
35245;SDS011;21379;50.962;6.960;2022-08-11T06:01:22;4.35;;;2.17;;
35245;SDS011;21379;50.962;6.960;2022-08-11T06:03:51;6.30;;;2.33;;
35245;SDS011;21379;50.962;6.960;2022-08-11T06:06:42;4.43;;;2.20;;
35245;SDS011;21379;50.962;6.960;2022-08-11T06:09:15;3.70;;;1.80;;
35245;SDS011;21379;50.962;6.960;2022-08-11T06:11:49;2.38;;;1.90;;
35245;SDS011;21379;50.962;6.960;2022-08-11T06:14:17;6.72;;;1.70;;
35245;SDS011;21379;50.962;6.960;2022-08-11T06:16:46;10.85;;;2.50;;
35245;SDS011;21379;50.962;6.960;2022-08-11T06:19:14;8.40;;;2.03;;
35245;SDS011;21379;50.962;6.960;2022-08-11T06:21:45;2.92;;;1.95;;
35245;SDS011;21379;50.962;6.960;2022-08-11T06:24:13;9.30;;;2.63;;
35245;SDS011;21379;50.962;6.960;2022-08-11T06:26:46;5.57;;;1.92;;
35245;SDS011;21379;50.962;6.960;2022-08-11T06:29:15;7.85;;;2.00;;
35245;SDS011;21379;50.962;6.960;2022-08-11T06:31:49;7.35;;;2.28;;
35245;SDS011;21379;50.962;6.960;2022-08-11T06:34:23;4.13;;;1.90;;
35245;SDS011;21379;50.962;6.960;2022-08-11T06:36:56;2.67;;;1.92;;
35245;SDS011;21379;50.962;6.960;2022-08-11T06:39:38;3.13;;;2.03;;
35245;SDS011;21379;50.962;6.960;2022-08-11T06:42:12;4.28;;;1.92;;
35245;SDS011;21379;50.962;6.960;2022-08-11T06:44:51;6.25;;;2.00;;
35245;SDS011;21379;50.962;6.960;2022-08-11T06:47:29;8.00;;;2.03;;
35245;SDS011;21379;50.962;6.960;2022-08-11T06:49:56;2.95;;;1.92;;
35245;SDS011;21379;50.962;6.960;2022-08-11T06:52:43;4.00;;;1.98;;
35245;SDS011;21379;50.962;6.960;2022-08-11T06:55:12;8.13;;;1.85;;
35245;SDS011;21379;50.962;6.960;2022-08-11T06:58:10;4.37;;;1.73;;
35245;SDS011;21379;50.962;6.960;2022-08-11T07:00:57;6.53;;;2.17;;
35245;SDS011;21379;50.962;6.960;2022-08-11T07:03:29;2.75;;;2.00;;
35245;SDS011;21379;50.962;6.960;2022-08-11T07:06:04;4.40;;;2.00;;
35245;SDS011;21379;50.962;6.960;2022-08-11T07:12:33;4.68;;;2.00;;
35245;SDS011;21379;50.962;6.960;2022-08-11T07:15:23;4.13;;;2.35;;
35245;SDS011;21379;50.962;6.960;2022-08-11T07:18:18;3.72;;;2.70;;
35245;SDS011;21379;50.962;6.960;2022-08-11T07:21:09;2.03;;;1.60;;
35245;SDS011;21379;50.962;6.960;2022-08-11T07:23:57;3.35;;;1.50;;
35245;SDS011;21379;50.962;6.960;2022-08-11T07:26:47;3.55;;;1.90;;
35245;SDS011;21379;50.962;6.960;2022-08-11T07:29:33;8.98;;;1.90;;
35245;SDS011;21379;50.962;6.960;2022-08-11T07:32:07;7.10;;;1.98;;
35245;SDS011;21379;50.962;6.960;2022-08-11T07:34:43;5.68;;;1.77;;
35245;SDS011;21379;50.962;6.960;2022-08-11T07:37:14;10.05;;;2.13;;
35245;SDS011;21379;50.962;6.960;2022-08-11T07:39:44;3.63;;;2.17;;
35245;SDS011;21379;50.962;6.960;2022-08-11T07:42:13;2.22;;;1.48;;
35245;SDS011;21379;50.962;6.960;2022-08-11T07:44:44;3.08;;;1.80;;
35245;SDS011;21379;50.962;6.960;2022-08-11T07:47:32;2.65;;;1.75;;
35245;SDS011;21379;50.962;6.960;2022-08-11T07:50:28;3.70;;;1.95;;
35245;SDS011;21379;50.962;6.960;2022-08-11T07:53:12;4.53;;;1.73;;
35245;SDS011;21379;50.962;6.960;2022-08-11T07:55:40;4.18;;;1.77;;
35245;SDS011;21379;50.962;6.960;2022-08-11T07:58:09;3.20;;;2.00;;
35245;SDS011;21379;50.962;6.960;2022-08-11T08:00:54;4.30;;;2.10;;
35245;SDS011;21379;50.962;6.960;2022-08-11T08:03:41;3.35;;;1.90;;
35245;SDS011;21379;50.962;6.960;2022-08-11T08:06:27;3.58;;;1.58;;
35245;SDS011;21379;50.962;6.960;2022-08-11T08:09:14;6.65;;;2.72;;
35245;SDS011;21379;50.962;6.960;2022-08-11T08:12:01;2.85;;;1.55;;
35245;SDS011;21379;50.962;6.960;2022-08-11T08:14:47;2.05;;;1.55;;
35245;SDS011;21379;50.962;6.960;2022-08-11T08:17:32;2.20;;;1.50;;
35245;SDS011;21379;50.962;6.960;2022-08-11T08:20:24;2.95;;;1.88;;
35245;SDS011;21379;50.962;6.960;2022-08-11T08:22:53;10.38;;;3.00;;
35245;SDS011;21379;50.962;6.960;2022-08-11T08:25:23;3.55;;;1.85;;
35245;SDS011;21379;50.962;6.960;2022-08-11T08:27:51;6.55;;;1.45;;
35245;SDS011;21379;50.962;6.960;2022-08-11T08:30:20;5.88;;;1.90;;
35245;SDS011;21379;50.962;6.960;2022-08-11T08:33:05;1.80;;;1.25;;
35245;SDS011;21379;50.962;6.960;2022-08-11T08:35:35;3.97;;;1.75;;
35245;SDS011;21379;50.962;6.960;2022-08-11T08:38:02;3.40;;;1.58;;
35245;SDS011;21379;50.962;6.960;2022-08-11T08:40:30;2.95;;;1.33;;
35245;SDS011;21379;50.962;6.960;2022-08-11T08:42:58;1.90;;;1.50;;
35245;SDS011;21379;50.962;6.960;2022-08-11T08:45:29;4.63;;;1.58;;
35245;SDS011;21379;50.962;6.960;2022-08-11T08:48:00;7.15;;;1.92;;
35245;SDS011;21379;50.962;6.960;2022-08-11T08:50:30;4.15;;;1.50;;
35245;SDS011;21379;50.962;6.960;2022-08-11T08:53:19;3.42;;;1.33;;
35245;SDS011;21379;50.962;6.960;2022-08-11T08:55:48;2.90;;;1.80;;
35245;SDS011;21379;50.962;6.960;2022-08-11T08:58:18;5.47;;;2.22;;
35245;SDS011;21379;50.962;6.960;2022-08-11T09:00:48;1.65;;;1.48;;
35245;SDS011;21379;50.962;6.960;2022-08-11T09:03:18;6.07;;;1.45;;
35245;SDS011;21379;50.962;6.960;2022-08-11T09:05:46;3.50;;;1.30;;
35245;SDS011;21379;50.962;6.960;2022-08-11T09:08:13;2.38;;;1.45;;
35245;SDS011;21379;50.962;6.960;2022-08-11T09:10:45;2.05;;;1.73;;
35245;SDS011;21379;50.962;6.960;2022-08-11T09:13:34;1.80;;;1.33;;
35245;SDS011;21379;50.962;6.960;2022-08-11T09:16:05;2.38;;;1.50;;
35245;SDS011;21379;50.962;6.960;2022-08-11T09:18:35;4.20;;;1.40;;
35245;SDS011;21379;50.962;6.960;2022-08-11T09:21:02;3.28;;;1.60;;
35245;SDS011;21379;50.962;6.960;2022-08-11T09:23:30;1.20;;;1.10;;
35245;SDS011;21379;50.962;6.960;2022-08-11T09:26:16;4.85;;;1.35;;
35245;SDS011;21379;50.962;6.960;2022-08-11T09:29:02;2.05;;;1.35;;
35245;SDS011;21379;50.962;6.960;2022-08-11T09:31:29;1.23;;;1.05;;
35245;SDS011;21379;50.962;6.960;2022-08-11T09:33:58;8.20;;;1.48;;
35245;SDS011;21379;50.962;6.960;2022-08-11T09:36:27;2.35;;;1.35;;
35245;SDS011;21379;50.962;6.960;2022-08-11T09:39:12;4.10;;;1.52;;
35245;SDS011;21379;50.962;6.960;2022-08-11T09:41:58;1.88;;;1.42;;
35245;SDS011;21379;50.962;6.960;2022-08-11T09:44:27;1.27;;;1.00;;
35245;SDS011;21379;50.962;6.960;2022-08-11T09:47:12;4.30;;;1.60;;
35245;SDS011;21379;50.962;6.960;2022-08-11T09:49:47;5.57;;;1.48;;
35245;SDS011;21379;50.962;6.960;2022-08-11T09:52:17;2.15;;;1.08;;
35245;SDS011;21379;50.962;6.960;2022-08-11T09:54:46;6.18;;;1.58;;
35245;SDS011;21379;50.962;6.960;2022-08-11T09:57:15;8.68;;;1.58;;
35245;SDS011;21379;50.962;6.960;2022-08-11T10:00:02;1.77;;;1.13;;
35245;SDS011;21379;50.962;6.960;2022-08-11T10:02:31;5.82;;;1.25;;
35245;SDS011;21379;50.962;6.960;2022-08-11T10:05:00;1.42;;;1.33;;
35245;SDS011;21379;50.962;6.960;2022-08-11T10:07:42;3.92;;;1.17;;
35245;SDS011;21379;50.962;6.960;2022-08-11T10:10:14;1.00;;;0.90;;
35245;SDS011;21379;50.962;6.960;2022-08-11T10:12:48;2.70;;;1.38;;
35245;SDS011;21379;50.962;6.960;2022-08-11T10:18:01;4.55;;;1.20;;
35245;SDS011;21379;50.962;6.960;2022-08-11T10:20:49;3.33;;;1.63;;
35245;SDS011;21379;50.962;6.960;2022-08-11T10:23:19;2.97;;;1.42;;
35245;SDS011;21379;50.962;6.960;2022-08-11T10:26:06;1.50;;;1.13;;
35245;SDS011;21379;50.962;6.960;2022-08-11T10:28:52;2.80;;;1.33;;
35245;SDS011;21379;50.962;6.960;2022-08-11T10:31:20;2.97;;;1.40;;
35245;SDS011;21379;50.962;6.960;2022-08-11T10:34:05;1.25;;;1.15;;
35245;SDS011;21379;50.962;6.960;2022-08-11T10:36:34;5.82;;;2.22;;
35245;SDS011;21379;50.962;6.960;2022-08-11T10:41:34;1.38;;;1.00;;
35245;SDS011;21379;50.962;6.960;2022-08-11T10:44:21;1.95;;;1.13;;
35245;SDS011;21379;50.962;6.960;2022-08-11T10:46:48;5.15;;;1.38;;
35245;SDS011;21379;50.962;6.960;2022-08-11T10:49:31;1.20;;;1.02;;
35245;SDS011;21379;50.962;6.960;2022-08-11T10:51:58;1.88;;;1.13;;
35245;SDS011;21379;50.962;6.960;2022-08-11T10:54:44;2.17;;;1.30;;
35245;SDS011;21379;50.962;6.960;2022-08-11T10:57:29;1.00;;;0.90;;
35245;SDS011;21379;50.962;6.960;2022-08-11T11:00:15;3.90;;;1.02;;
35245;SDS011;21379;50.962;6.960;2022-08-11T11:02:43;3.22;;;0.90;;
35245;SDS011;21379;50.962;6.960;2022-08-11T11:05:13;3.13;;;1.10;;
35245;SDS011;21379;50.962;6.960;2022-08-11T11:07:46;3.28;;;1.13;;
35245;SDS011;21379;50.962;6.960;2022-08-11T11:10:18;1.77;;;1.30;;
35245;SDS011;21379;50.962;6.960;2022-08-11T11:12:45;2.95;;;1.40;;
35245;SDS011;21379;50.962;6.960;2022-08-11T11:15:35;1.15;;;1.05;;
35245;SDS011;21379;50.962;6.960;2022-08-11T11:18:23;2.70;;;1.25;;
35245;SDS011;21379;50.962;6.960;2022-08-11T11:20:53;2.10;;;1.10;;
35245;SDS011;21379;50.962;6.960;2022-08-11T11:23:22;3.92;;;1.55;;
35245;SDS011;21379;50.962;6.960;2022-08-11T11:26:07;2.88;;;1.00;;
35245;SDS011;21379;50.962;6.960;2022-08-11T11:31:58;1.42;;;1.30;;
35245;SDS011;21379;50.962;6.960;2022-08-11T11:34:41;1.92;;;1.40;;
35245;SDS011;21379;50.962;6.960;2022-08-11T11:37:22;2.65;;;1.30;;
35245;SDS011;21379;50.962;6.960;2022-08-11T11:39:49;1.67;;;1.00;;
35245;SDS011;21379;50.962;6.960;2022-08-11T11:42:16;1.98;;;1.35;;
35245;SDS011;21379;50.962;6.960;2022-08-11T11:44:45;1.33;;;1.20;;
35245;SDS011;21379;50.962;6.960;2022-08-11T11:47:14;3.15;;;1.02;;
35245;SDS011;21379;50.962;6.960;2022-08-11T11:49:44;2.08;;;1.30;;
35245;SDS011;21379;50.962;6.960;2022-08-11T11:52:12;2.13;;;1.30;;
35245;SDS011;21379;50.962;6.960;2022-08-11T11:54:43;1.90;;;1.60;;
35245;SDS011;21379;50.962;6.960;2022-08-11T11:57:14;1.95;;;1.35;;
35245;SDS011;21379;50.962;6.960;2022-08-11T12:00:01;2.05;;;1.23;;
35245;SDS011;21379;50.962;6.960;2022-08-11T12:02:49;2.45;;;1.20;;
35245;SDS011;21379;50.962;6.960;2022-08-11T12:05:16;1.30;;;1.20;;
35245;SDS011;21379;50.962;6.960;2022-08-11T12:07:44;2.75;;;1.40;;
35245;SDS011;21379;50.962;6.960;2022-08-11T12:10:29;10.98;;;2.20;;
35245;SDS011;21379;50.962;6.960;2022-08-11T12:12:58;1.27;;;1.10;;
35245;SDS011;21379;50.962;6.960;2022-08-11T12:15:44;1.42;;;1.25;;
35245;SDS011;21379;50.962;6.960;2022-08-11T12:18:13;3.70;;;1.30;;
35245;SDS011;21379;50.962;6.960;2022-08-11T12:20:41;1.45;;;1.35;;
35245;SDS011;21379;50.962;6.960;2022-08-11T12:23:10;2.40;;;1.40;;
35245;SDS011;21379;50.962;6.960;2022-08-11T12:25:55;2.17;;;1.50;;
35245;SDS011;21379;50.962;6.960;2022-08-11T12:28:41;2.78;;;1.55;;
35245;SDS011;21379;50.962;6.960;2022-08-11T12:31:10;1.80;;;1.50;;
35245;SDS011;21379;50.962;6.960;2022-08-11T12:33:39;2.08;;;1.40;;
35245;SDS011;21379;50.962;6.960;2022-08-11T12:36:08;1.85;;;1.20;;
35245;SDS011;21379;50.962;6.960;2022-08-11T12:38:41;2.80;;;1.40;;
35245;SDS011;21379;50.962;6.960;2022-08-11T12:41:11;1.80;;;1.30;;
35245;SDS011;21379;50.962;6.960;2022-08-11T12:43:56;3.65;;;1.52;;
35245;SDS011;21379;50.962;6.960;2022-08-11T12:46:43;1.67;;;1.13;;
35245;SDS011;21379;50.962;6.960;2022-08-11T12:49:15;2.72;;;1.30;;
35245;SDS011;21379;50.962;6.960;2022-08-11T12:52:17;2.63;;;1.30;;
35245;SDS011;21379;50.962;6.960;2022-08-11T12:54:49;1.73;;;1.10;;
35245;SDS011;21379;50.962;6.960;2022-08-11T12:57:24;2.85;;;1.25;;
35245;SDS011;21379;50.962;6.960;2022-08-11T13:00:12;2.85;;;1.23;;
35245;SDS011;21379;50.962;6.960;2022-08-11T13:02:57;4.10;;;1.58;;
35245;SDS011;21379;50.962;6.960;2022-08-11T13:05:44;1.40;;;1.13;;
35245;SDS011;21379;50.962;6.960;2022-08-11T13:08:13;1.55;;;1.40;;
35245;SDS011;21379;50.962;6.960;2022-08-11T13:10:42;2.08;;;1.40;;
35245;SDS011;21379;50.962;6.960;2022-08-11T13:13:27;4.40;;;1.20;;
35245;SDS011;21379;50.962;6.960;2022-08-11T13:15:56;1.83;;;1.00;;
35245;SDS011;21379;50.962;6.960;2022-08-11T13:18:23;3.33;;;1.83;;
35245;SDS011;21379;50.962;6.960;2022-08-11T13:20:53;1.23;;;1.10;;
35245;SDS011;21379;50.962;6.960;2022-08-11T13:23:21;3.78;;;1.55;;
35245;SDS011;21379;50.962;6.960;2022-08-11T13:25:49;1.42;;;1.05;;
35245;SDS011;21379;50.962;6.960;2022-08-11T13:28:19;4.15;;;1.35;;
35245;SDS011;21379;50.962;6.960;2022-08-11T13:30:47;2.58;;;1.70;;
35245;SDS011;21379;50.962;6.960;2022-08-11T13:33:33;2.33;;;1.35;;
35245;SDS011;21379;50.962;6.960;2022-08-11T13:36:03;2.65;;;1.23;;
35245;SDS011;21379;50.962;6.960;2022-08-11T13:38:31;1.65;;;1.20;;
35245;SDS011;21379;50.962;6.960;2022-08-11T13:40:59;8.65;;;1.58;;
35245;SDS011;21379;50.962;6.960;2022-08-11T13:43:26;2.42;;;1.42;;
35245;SDS011;21379;50.962;6.960;2022-08-11T13:45:54;1.58;;;1.20;;
35245;SDS011;21379;50.962;6.960;2022-08-11T13:48:41;1.83;;;1.52;;
35245;SDS011;21379;50.962;6.960;2022-08-11T13:51:10;6.15;;;1.70;;
35245;SDS011;21379;50.962;6.960;2022-08-11T13:53:58;2.20;;;1.60;;
35245;SDS011;21379;50.962;6.960;2022-08-11T13:56:26;3.90;;;1.45;;
35245;SDS011;21379;50.962;6.960;2022-08-11T13:58:54;1.27;;;1.08;;
35245;SDS011;21379;50.962;6.960;2022-08-11T14:01:25;1.42;;;1.20;;
35245;SDS011;21379;50.962;6.960;2022-08-11T14:03:54;1.48;;;1.20;;
35245;SDS011;21379;50.962;6.960;2022-08-11T14:06:28;2.05;;;1.80;;
35245;SDS011;21379;50.962;6.960;2022-08-11T14:08:55;3.33;;;1.38;;
35245;SDS011;21379;50.962;6.960;2022-08-11T14:11:24;2.67;;;1.30;;
35245;SDS011;21379;50.962;6.960;2022-08-11T14:14:10;2.05;;;1.10;;
35245;SDS011;21379;50.962;6.960;2022-08-11T14:19:12;6.82;;;1.50;;
35245;SDS011;21379;50.962;6.960;2022-08-11T14:21:43;1.85;;;1.13;;
35245;SDS011;21379;50.962;6.960;2022-08-11T14:24:30;1.40;;;1.30;;
35245;SDS011;21379;50.962;6.960;2022-08-11T14:26:57;1.27;;;1.17;;
35245;SDS011;21379;50.962;6.960;2022-08-11T14:29:26;2.17;;;1.25;;
35245;SDS011;21379;50.962;6.960;2022-08-11T14:31:57;2.22;;;1.40;;
35245;SDS011;21379;50.962;6.960;2022-08-11T14:34:27;1.35;;;1.23;;
35245;SDS011;21379;50.962;6.960;2022-08-11T14:36:57;1.73;;;1.48;;
35245;SDS011;21379;50.962;6.960;2022-08-11T14:39:26;2.40;;;1.42;;
35245;SDS011;21379;50.962;6.960;2022-08-11T14:41:55;2.63;;;1.80;;
35245;SDS011;21379;50.962;6.960;2022-08-11T14:44:44;1.90;;;1.27;;
35245;SDS011;21379;50.962;6.960;2022-08-11T14:47:42;2.65;;;1.42;;
35245;SDS011;21379;50.962;6.960;2022-08-11T14:50:13;2.42;;;1.42;;
35245;SDS011;21379;50.962;6.960;2022-08-11T14:52:46;3.42;;;1.60;;
35245;SDS011;21379;50.962;6.960;2022-08-11T14:55:16;1.83;;;1.60;;
35245;SDS011;21379;50.962;6.960;2022-08-11T14:58:01;1.67;;;1.55;;
35245;SDS011;21379;50.962;6.960;2022-08-11T15:00:29;2.30;;;1.45;;
35245;SDS011;21379;50.962;6.960;2022-08-11T15:02:58;1.45;;;1.10;;
35245;SDS011;21379;50.962;6.960;2022-08-11T15:05:34;3.97;;;1.65;;
35245;SDS011;21379;50.962;6.960;2022-08-11T15:08:04;5.40;;;1.45;;
35245;SDS011;21379;50.962;6.960;2022-08-11T15:10:32;1.40;;;1.20;;
35245;SDS011;21379;50.962;6.960;2022-08-11T15:13:00;2.72;;;1.60;;
35245;SDS011;21379;50.962;6.960;2022-08-11T15:15:28;1.92;;;1.38;;
35245;SDS011;21379;50.962;6.960;2022-08-11T15:18:14;2.50;;;1.55;;
35245;SDS011;21379;50.962;6.960;2022-08-11T15:20:43;3.22;;;1.42;;
35245;SDS011;21379;50.962;6.960;2022-08-11T15:23:29;3.60;;;1.45;;
35245;SDS011;21379;50.962;6.960;2022-08-11T15:26:17;1.42;;;1.27;;
35245;SDS011;21379;50.962;6.960;2022-08-11T15:29:08;1.60;;;1.42;;
35245;SDS011;21379;50.962;6.960;2022-08-11T15:31:54;3.80;;;1.75;;
35245;SDS011;21379;50.962;6.960;2022-08-11T15:34:42;2.47;;;1.55;;
35245;SDS011;21379;50.962;6.960;2022-08-11T15:37:30;1.80;;;1.20;;
35245;SDS011;21379;50.962;6.960;2022-08-11T15:40:06;1.33;;;1.20;;
35245;SDS011;21379;50.962;6.960;2022-08-11T15:42:56;1.98;;;1.58;;
35245;SDS011;21379;50.962;6.960;2022-08-11T15:45:45;2.85;;;1.33;;
35245;SDS011;21379;50.962;6.960;2022-08-11T15:48:21;1.38;;;1.20;;
35245;SDS011;21379;50.962;6.960;2022-08-11T15:50:56;2.60;;;1.80;;
35245;SDS011;21379;50.962;6.960;2022-08-11T15:53:30;1.45;;;1.33;;
35245;SDS011;21379;50.962;6.960;2022-08-11T15:56:01;2.33;;;1.60;;
35245;SDS011;21379;50.962;6.960;2022-08-11T15:58:35;3.45;;;1.27;;
35245;SDS011;21379;50.962;6.960;2022-08-11T16:01:24;1.37;;;1.27;;
35245;SDS011;21379;50.962;6.960;2022-08-11T16:04:13;1.60;;;1.40;;
35245;SDS011;21379;50.962;6.960;2022-08-11T16:06:43;2.17;;;1.63;;
35245;SDS011;21379;50.962;6.960;2022-08-11T16:09:14;3.28;;;1.40;;
35245;SDS011;21379;50.962;6.960;2022-08-11T16:11:46;1.95;;;1.58;;
35245;SDS011;21379;50.962;6.960;2022-08-11T16:14:15;6.72;;;1.85;;
35245;SDS011;21379;50.962;6.960;2022-08-11T16:17:02;1.95;;;1.75;;
35245;SDS011;21379;50.962;6.960;2022-08-11T16:19:31;2.75;;;1.35;;
35245;SDS011;21379;50.962;6.960;2022-08-11T16:22:01;2.58;;;1.65;;
35245;SDS011;21379;50.962;6.960;2022-08-11T16:24:32;1.98;;;1.67;;
35245;SDS011;21379;50.962;6.960;2022-08-11T16:27:04;5.15;;;1.75;;
35245;SDS011;21379;50.962;6.960;2022-08-11T16:29:36;3.03;;;1.40;;
35245;SDS011;21379;50.962;6.960;2022-08-11T16:32:09;2.58;;;1.50;;
35245;SDS011;21379;50.962;6.960;2022-08-11T16:34:45;2.97;;;1.30;;
35245;SDS011;21379;50.962;6.960;2022-08-11T16:37:36;4.15;;;2.42;;
35245;SDS011;21379;50.962;6.960;2022-08-11T16:40:23;2.85;;;1.90;;
35245;SDS011;21379;50.962;6.960;2022-08-11T16:42:52;2.97;;;1.75;;
35245;SDS011;21379;50.962;6.960;2022-08-11T16:45:47;3.58;;;1.80;;
35245;SDS011;21379;50.962;6.960;2022-08-11T16:48:33;4.97;;;2.25;;
35245;SDS011;21379;50.962;6.960;2022-08-11T16:51:02;3.03;;;1.92;;
35245;SDS011;21379;50.962;6.960;2022-08-11T16:53:30;3.70;;;1.63;;
35245;SDS011;21379;50.962;6.960;2022-08-11T16:55:58;4.00;;;1.50;;
35245;SDS011;21379;50.962;6.960;2022-08-11T16:58:30;2.08;;;1.60;;
35245;SDS011;21379;50.962;6.960;2022-08-11T17:01:18;3.58;;;1.55;;